Terminal Aerodrome Forecast
Issued by NWS Milwaukee/Sullivan, WI

Home | Current Version | Previous Version | Text Only | Print | Product List | Glossary On
Versions: 1 2 3 4 5 6 7 8 9 10 11 12 13 14 15 16 17 18 19 20 21 22 23 24 25 26 27 28 29 30 31 32 33 34 35 36 37 38 39 40 41 42 43 44 45 46 47 48 49 50
000
FTUS43 KMKX 290814 AAB
TAFMKE
TAF AMD
KMKE 290814Z 2908/3012 11009KT 4SM -SHRA BR BKN006 OVC040
     FM290900 11011G16KT 2SM SHRA BR BKN005
     FM291100 13010KT 1 1/2SM -SHRA BR BKN005
     FM291600 16008KT 5SM -SHRA BR SCT009 OVC012
     FM291800 16006KT 5SM BR OVC015
     FM292100 13007KT P6SM BKN035
     FM300900 00000KT 6SM BR BKN020=

USA.gov is the U.S. government's official web portal to all federal, state and local government web resources and services.